Time;durP1;ratioP1;P1;durP2;ratioP2;P2;SDS_P1;SDS_P2;PMS_P1;PMS_P2;Temp;Humidity;BMP_temperature;BMP_pressure;BME280_temperature;BME280_humidity;BME280_pressure;Samples;Min_cycle;Max_cycle;Signal;HPM_P1;HPM_P2
2022/11/30 00:00:27;;;;;;;3.60;2.53;;;5.50;99.90;;;;;;4384343;32;20656;-73
2022/11/30 00:02:54;;;;;;;4.03;2.37;;;5.40;99.90;;;;;;4378282;32;20085;-75
2022/11/30 00:05:21;;;;;;;2.95;2.00;;;5.50;99.90;;;;;;4365459;32;21364;-73
2022/11/30 00:07:47;;;;;;;7.80;2.45;;;5.50;99.90;;;;;;4379341;32;20126;-74
2022/11/30 00:10:12;;;;;;;6.93;2.70;;;5.40;99.90;;;;;;4385120;32;20061;-74
2022/11/30 00:12:41;;;;;;;1.45;1.35;;;5.30;99.90;;;;;;4382827;32;20115;-73
2022/11/30 00:15:11;;;;;;;2.83;2.00;;;5.30;99.90;;;;;;4382514;32;20257;-75
2022/11/30 00:17:36;;;;;;;3.73;1.97;;;5.40;99.90;;;;;;4382046;32;20102;-74
2022/11/30 00:20:02;;;;;;;4.93;2.25;;;5.40;99.90;;;;;;4382086;32;20055;-73
2022/11/30 00:22:28;;;;;;;1.65;1.48;;;5.30;99.90;;;;;;4379782;32;20518;-74
2022/11/30 00:24:53;;;;;;;3.95;2.28;;;5.30;99.90;;;;;;4382719;32;20114;-74
2022/11/30 00:27:19;;;;;;;1.23;1.23;;;5.30;99.90;;;;;;4383034;32;20062;-76
2022/11/30 00:29:44;;;;;;;10.35;2.25;;;5.20;99.90;;;;;;4382085;32;21175;-74
2022/11/30 00:32:09;;;;;;;3.70;2.17;;;5.20;99.90;;;;;;4381115;32;20133;-74
2022/11/30 00:34:35;;;;;;;3.37;2.05;;;5.20;99.90;;;;;;4368567;32;21078;-75
2022/11/30 00:37:00;;;;;;;5.82;3.17;;;5.30;99.90;;;;;;4367863;32;20121;-73
2022/11/30 00:39:26;;;;;;;7.32;2.58;;;5.20;99.90;;;;;;4383612;32;20066;-75
2022/11/30 00:41:51;;;;;;;4.35;2.72;;;5.30;99.90;;;;;;4385693;32;20090;-74
2022/11/30 00:44:17;;;;;;;2.20;1.83;;;5.30;99.90;;;;;;4383585;32;20164;-74
2022/11/30 00:46:42;;;;;;;2.40;1.92;;;5.30;99.90;;;;;;4385592;32;20538;-74
2022/11/30 00:49:08;;;;;;;6.03;2.60;;;5.30;99.90;;;;;;4387310;32;20082;-74
2022/11/30 00:51:33;;;;;;;9.93;4.50;;;5.30;99.90;;;;;;4388519;32;20134;-74
2022/11/30 00:53:58;;;;;;;2.47;1.87;;;5.30;99.90;;;;;;4386425;32;20089;-74
2022/11/30 00:56:24;;;;;;;2.37;1.95;;;5.30;99.90;;;;;;4386867;32;20533;-75
2022/11/30 00:58:50;;;;;;;3.28;1.58;;;5.30;99.90;;;;;;4384849;32;20097;-74
2022/11/30 01:01:15;;;;;;;4.90;2.05;;;5.30;99.90;;;;;;4384288;32;20059;-76
2022/11/30 01:03:41;;;;;;;2.55;2.28;;;5.30;99.90;;;;;;4375243;32;20082;-75
2022/11/30 01:06:08;;;;;;;3.55;1.85;;;5.20;99.90;;;;;;4368919;32;20069;-73
2022/11/30 01:08:34;;;;;;;3.22;2.15;;;5.20;99.90;;;;;;4382777;32;20059;-74
2022/11/30 01:11:13;;;;;;;5.15;2.28;;;5.20;99.90;;;;;;4383336;32;20563;-74
2022/11/30 01:13:39;;;;;;;2.65;1.77;;;5.30;99.90;;;;;;4386388;32;20086;-73
2022/11/30 01:16:10;;;;;;;3.12;1.85;;;5.30;99.90;;;;;;4388631;32;20066;-73
2022/11/30 01:18:37;;;;;;;11.80;3.55;;;5.20;99.90;;;;;;4386944;32;20646;-74
2022/11/30 01:21:07;;;;;;;8.98;4.05;;;5.20;99.90;;;;;;4385580;32;20650;-74
2022/11/30 01:23:33;;;;;;;6.05;2.60;;;5.30;99.90;;;;;;4382654;32;20097;-73
2022/11/30 01:25:58;;;;;;;9.75;3.15;;;5.20;99.90;;;;;;4385456;32;20411;-74
2022/11/30 01:28:23;;;;;;;3.62;2.60;;;5.20;99.90;;;;;;4386774;32;20140;-73
2022/11/30 01:30:58;;;;;;;3.55;2.97;;;5.30;99.90;;;;;;4388575;32;20124;-75
2022/11/30 01:33:24;;;;;;;2.50;2.12;;;5.20;99.90;;;;;;4380723;32;20134;-74
2022/11/30 01:36:09;;;;;;;3.28;2.28;;;5.20;99.90;;;;;;4367417;32;20813;-75
2022/11/30 01:38:37;;;;;;;4.10;2.47;;;5.20;99.90;;;;;;4369659;32;20136;-73
2022/11/30 01:41:04;;;;;;;5.80;1.75;;;5.20;99.90;;;;;;4387593;32;20518;-74
2022/11/30 01:43:40;;;;;;;3.10;2.58;;;5.20;99.90;;;;;;4387133;32;20054;-74
2022/11/30 01:46:19;;;;;;;3.08;2.50;;;5.20;99.90;;;;;;4385489;32;20109;-74
2022/11/30 01:48:46;;;;;;;1.67;1.55;;;5.30;99.90;;;;;;4390540;32;20094;-75
2022/11/30 01:51:11;;;;;;;4.32;2.55;;;5.30;99.90;;;;;;4387219;32;20066;-75
2022/11/30 01:53:37;;;;;;;5.47;2.85;;;5.20;99.90;;;;;;4385258;32;20495;-73
2022/11/30 01:56:03;;;;;;;6.05;3.33;;;5.30;99.90;;;;;;4386510;32;20086;-74
2022/11/30 01:58:29;;;;;;;6.85;3.05;;;5.20;99.90;;;;;;4384702;32;20189;-73
2022/11/30 02:00:55;;;;;;;10.80;2.80;;;5.20;99.90;;;;;;4382460;32;20125;-74
2022/11/30 02:03:32;;;;;;;3.28;2.72;;;5.20;99.90;;;;;;4377417;32;20238;-75
2022/11/30 02:05:59;;;;;;;2.60;1.83;;;5.20;99.90;;;;;;4365506;32;20081;-75
2022/11/30 02:08:26;;;;;;;9.00;2.10;;;5.10;99.90;;;;;;4380700;32;20589;-75
2022/11/30 02:10:57;;;;;;;3.58;1.77;;;5.10;99.90;;;;;;4382314;32;20525;-73
2022/11/30 02:13:34;;;;;;;13.15;3.85;;;5.10;99.90;;;;;;4382339;32;20095;-74
2022/11/30 02:16:34;;;;;;;5.93;2.70;;;5.10;99.90;;;;;;4383283;32;20074;-75
2022/11/30 02:19:38;;;;;;;3.50;2.50;;;5.10;99.90;;;;;;4370863;32;20494;-74
2022/11/30 02:22:20;;;;;;;3.12;2.70;;;5.20;99.90;;;;;;4375514;32;20118;-73
2022/11/30 02:24:52;;;;;;;2.85;2.17;;;5.10;99.90;;;;;;4386014;32;20102;-74
2022/11/30 02:27:43;;;;;;;6.47;2.12;;;5.10;99.90;;;;;;4384159;32;20114;-74
2022/11/30 02:30:12;;;;;;;2.95;2.05;;;5.20;99.90;;;;;;4383252;32;20121;-74
2022/11/30 02:32:44;;;;;;;4.90;3.20;;;5.20;99.90;;;;;;4382563;32;20093;-75
2022/11/30 02:35:10;;;;;;;7.87;3.25;;;5.20;99.90;;;;;;4369061;32;20078;-74
2022/11/30 02:37:38;;;;;;;6.10;3.30;;;5.10;99.90;;;;;;4374646;32;20086;-74
2022/11/30 02:40:15;;;;;;;2.85;2.12;;;5.10;99.90;;;;;;4385647;32;20082;-73
2022/11/30 02:42:41;;;;;;;5.43;2.83;;;5.10;99.90;;;;;;4383614;32;20539;-74
2022/11/30 02:45:08;;;;;;;5.03;2.62;;;5.10;99.90;;;;;;4386156;32;20066;-73
2022/11/30 02:47:42;;;;;;;8.43;3.85;;;5.00;99.90;;;;;;4384906;32;20423;-74
2022/11/30 02:50:29;;;;;;;4.10;2.55;;;5.00;99.90;;;;;;4386055;32;20085;-74
2022/11/30 02:52:55;;;;;;;8.93;3.83;;;5.00;99.90;;;;;;4381799;32;20094;-76
2022/11/30 02:55:21;;;;;;;2.92;2.03;;;5.00;99.90;;;;;;4381283;32;20097;-74
2022/11/30 02:57:47;;;;;;;5.80;3.42;;;5.00;99.90;;;;;;4382606;32;20458;-74
2022/11/30 03:00:13;;;;;;;4.62;3.08;;;5.00;99.90;;;;;;4380748;32;20082;-76
2022/11/30 03:02:39;;;;;;;3.45;2.00;;;4.90;99.90;;;;;;4380458;32;20188;-76
2022/11/30 03:05:06;;;;;;;7.03;3.45;;;5.00;99.90;;;;;;4364701;32;21126;-75
2022/11/30 03:07:31;;;;;;;10.82;3.83;;;5.00;99.90;;;;;;4375538;32;20066;-75
2022/11/30 03:09:58;;;;;;;2.40;2.10;;;5.00;99.90;;;;;;4384796;32;20129;-73
2022/11/30 03:12:24;;;;;;;3.12;2.72;;;5.00;99.90;;;;;;4383989;32;20074;-74
2022/11/30 03:14:49;;;;;;;2.12;1.92;;;5.00;99.90;;;;;;4382420;32;20097;-74
2022/11/30 03:17:15;;;;;;;3.60;2.47;;;5.00;99.90;;;;;;4382310;32;20566;-74
2022/11/30 03:19:40;;;;;;;3.72;2.50;;;5.00;99.90;;;;;;4385201;32;20098;-73
2022/11/30 03:22:06;;;;;;;4.65;2.47;;;5.00;99.90;;;;;;4385035;32;20094;-74
2022/11/30 03:24:31;;;;;;;5.25;3.67;;;5.00;99.90;;;;;;4383936;32;20459;-73
2022/11/30 03:26:57;;;;;;;4.60;2.83;;;5.00;99.90;;;;;;4385480;32;20062;-73
2022/11/30 03:29:22;;;;;;;2.50;1.98;;;5.10;99.90;;;;;;4386147;32;20569;-75
2022/11/30 03:31:49;;;;;;;1.73;1.62;;;5.10;99.90;;;;;;4383567;32;20086;-74
2022/11/30 03:34:14;;;;;;;5.05;2.72;;;5.10;99.90;;;;;;4370007;32;20172;-75
2022/11/30 03:36:40;;;;;;;5.43;3.03;;;5.20;99.90;;;;;;4367645;32;20071;-76
2022/11/30 03:39:05;;;;;;;21.35;3.30;;;5.20;99.90;;;;;;4384067;32;20107;-74
2022/11/30 03:41:31;;;;;;;3.85;2.08;;;5.20;99.90;;;;;;4384291;32;20117;-75
2022/11/30 03:43:56;;;;;;;7.05;2.25;;;5.10;99.90;;;;;;4384488;32;20070;-74
2022/11/30 03:46:22;;;;;;;19.55;3.28;;;5.10;99.90;;;;;;4385093;32;20078;-74
2022/11/30 03:48:47;;;;;;;3.62;2.33;;;5.10;99.90;;;;;;4383315;32;20091;-75
2022/11/30 03:51:13;;;;;;;5.82;3.50;;;5.00;99.90;;;;;;4382660;32;20082;-74
2022/11/30 03:53:39;;;;;;;10.25;2.37;;;5.00;99.90;;;;;;4382629;32;20081;-73
2022/11/30 03:56:07;;;;;;;5.68;2.62;;;5.00;99.90;;;;;;4382770;32;20113;-73
2022/11/30 03:58:33;;;;;;;2.10;1.90;;;5.00;99.90;;;;;;4386615;32;20159;-75
2022/11/30 04:01:12;;;;;;;3.80;2.22;;;5.00;99.90;;;;;;4384556;32;20522;-73
2022/11/30 04:03:38;;;;;;;8.82;2.03;;;5.00;99.90;;;;;;4375835;32;20471;-74
2022/11/30 04:06:06;;;;;;;2.80;2.10;;;4.90;99.90;;;;;;4366908;32;20070;-74
2022/11/30 04:08:32;;;;;;;5.35;3.17;;;4.90;99.90;;;;;;4378844;32;20161;-73
2022/11/30 04:11:00;;;;;;;1.77;1.50;;;4.90;99.90;;;;;;4382678;32;20062;-73
2022/11/30 04:13:27;;;;;;;7.07;2.47;;;5.00;99.90;;;;;;4384717;32;20069;-74
2022/11/30 04:15:53;;;;;;;6.53;2.83;;;5.00;99.90;;;;;;4382844;32;20090;-73
2022/11/30 04:18:20;;;;;;;14.70;4.50;;;5.00;99.90;;;;;;4386128;32;20078;-74
2022/11/30 04:20:48;;;;;;;3.97;3.03;;;5.00;99.90;;;;;;4387052;32;20090;-73
2022/11/30 04:23:14;;;;;;;2.97;2.40;;;5.00;99.90;;;;;;4385502;32;20442;-73
2022/11/30 04:25:40;;;;;;;5.10;3.35;;;5.00;99.90;;;;;;4386594;32;20083;-74
2022/11/30 04:28:07;;;;;;;20.83;2.80;;;5.00;99.90;;;;;;4386497;32;20090;-73
2022/11/30 04:30:34;;;;;;;6.18;2.53;;;5.00;99.90;;;;;;4385530;32;20128;-73
2022/11/30 04:33:00;;;;;;;2.37;2.15;;;4.90;99.90;;;;;;4381711;32;21237;-76
2022/11/30 04:35:25;;;;;;;6.60;2.42;;;4.90;99.90;;;;;;4365777;32;20536;-75
2022/11/30 04:37:51;;;;;;;7.32;3.47;;;4.90;99.90;;;;;;4380905;32;20102;-74
2022/11/30 04:40:16;;;;;;;2.25;2.05;;;5.00;99.90;;;;;;4385423;32;20206;-74
2022/11/30 04:42:42;;;;;;;15.25;2.95;;;5.00;99.90;;;;;;4388566;32;20093;-74
2022/11/30 04:45:08;;;;;;;4.85;3.15;;;4.90;99.90;;;;;;4386919;32;20130;-75
2022/11/30 04:47:34;;;;;;;13.50;2.33;;;5.00;99.90;;;;;;4384626;32;20137;-73
2022/11/30 04:49:59;;;;;;;6.22;4.05;;;5.00;99.90;;;;;;4386430;32;20098;-73
2022/11/30 04:52:25;;;;;;;3.50;2.72;;;4.90;99.90;;;;;;4386531;32;20093;-73
2022/11/30 04:54:51;;;;;;;2.83;1.80;;;4.90;99.90;;;;;;4385627;32;20393;-73
2022/11/30 04:57:17;;;;;;;3.25;2.05;;;4.90;99.90;;;;;;4382917;32;20082;-74
2022/11/30 04:59:43;;;;;;;1.40;1.30;;;4.90;99.90;;;;;;4385800;32;20102;-74
2022/11/30 05:02:08;;;;;;;4.03;2.45;;;4.90;99.90;;;;;;4385626;32;20156;-74
2022/11/30 05:04:34;;;;;;;1.58;1.48;;;4.90;99.90;;;;;;4371046;32;20078;-73
2022/11/30 05:07:00;;;;;;;3.15;2.47;;;4.90;99.90;;;;;;4371767;32;21198;-73
2022/11/30 05:09:25;;;;;;;3.25;2.47;;;4.90;99.90;;;;;;4386434;32;20404;-72
2022/11/30 05:11:51;;;;;;;3.22;2.92;;;4.90;99.90;;;;;;4383983;32;20190;-74
2022/11/30 05:14:16;;;;;;;6.62;3.10;;;4.90;99.90;;;;;;4388563;32;20440;-72
2022/11/30 05:16:42;;;;;;;5.97;3.62;;;4.80;99.90;;;;;;4386980;32;20598;-73
2022/11/30 05:19:07;;;;;;;5.90;3.40;;;4.90;99.90;;;;;;4384896;32;20186;-72
2022/11/30 05:21:33;;;;;;;2.97;1.80;;;4.80;99.90;;;;;;4378150;32;20110;-75
2022/11/30 05:23:58;;;;;;;4.65;2.92;;;4.80;99.90;;;;;;4347389;32;20374;-75
2022/11/30 05:26:24;;;;;;;9.43;2.92;;;4.90;99.90;;;;;;4351677;32;20507;-76
2022/11/30 05:28:49;;;;;;;3.05;2.37;;;4.90;99.90;;;;;;4345820;32;20624;-74
2022/11/30 05:31:15;;;;;;;2.45;1.98;;;5.00;99.90;;;;;;4350706;32;20114;-75
2022/11/30 05:33:41;;;;;;;7.62;3.55;;;5.00;99.90;;;;;;4334592;32;20173;-75
2022/11/30 05:36:07;;;;;;;14.27;3.10;;;5.00;99.90;;;;;;4336863;32;20209;-75
2022/11/30 05:38:32;;;;;;;6.30;3.53;;;4.90;99.90;;;;;;4379211;32;20452;-73
2022/11/30 05:41:00;;;;;;;4.60;3.12;;;4.90;99.90;;;;;;4384917;32;20102;-74
2022/11/30 05:43:25;;;;;;;4.70;2.42;;;4.80;99.90;;;;;;4385157;32;20134;-74
2022/11/30 05:45:51;;;;;;;6.82;3.67;;;4.90;99.90;;;;;;4384918;32;20340;-74
2022/11/30 05:48:16;;;;;;;6.90;4.12;;;4.90;99.90;;;;;;4386213;32;20066;-74
2022/11/30 05:50:42;;;;;;;2.90;1.80;;;4.80;99.90;;;;;;4385970;32;20081;-73
2022/11/30 05:53:07;;;;;;;4.32;1.83;;;4.80;99.90;;;;;;4354480;32;20113;-76
2022/11/30 05:55:33;;;;;;;2.85;2.40;;;4.90;99.90;;;;;;4350143;32;20185;-75
2022/11/30 05:57:58;;;;;;;5.65;2.05;;;4.90;99.90;;;;;;4371629;32;20082;-73
2022/11/30 06:00:24;;;;;;;5.80;2.80;;;4.80;99.90;;;;;;4381529;32;20253;-75
2022/11/30 06:02:55;;;;;;;2.90;2.65;;;4.90;99.90;;;;;;4368654;32;20811;-74
2022/11/30 06:05:21;;;;;;;22.00;2.55;;;4.80;99.90;;;;;;4337595;32;20089;-75
2022/11/30 06:07:46;;;;;;;4.07;2.40;;;4.80;99.90;;;;;;4339794;32;20094;-75
2022/11/30 06:10:12;;;;;;;4.85;3.20;;;4.80;99.90;;;;;;4339084;32;20902;-75
2022/11/30 06:12:38;;;;;;;6.22;2.87;;;4.80;99.90;;;;;;4339281;32;20527;-74
2022/11/30 06:15:04;;;;;;;12.00;2.92;;;4.80;99.90;;;;;;4336905;32;20146;-77
2022/11/30 06:17:29;;;;;;;7.87;2.50;;;4.80;99.90;;;;;;4332884;32;20578;-74
2022/11/30 06:19:55;;;;;;;5.93;2.92;;;4.80;99.90;;;;;;4303711;32;20339;-76
2022/11/30 06:22:20;;;;;;;6.20;3.67;;;4.80;99.90;;;;;;4306943;32;20361;-74
2022/11/30 06:24:45;;;;;;;6.32;1.90;;;4.80;99.90;;;;;;4279077;32;21552;-77
2022/11/30 06:27:11;;;;;;;7.97;2.42;;;4.90;99.90;;;;;;4307319;32;20102;-76
2022/11/30 06:29:36;;;;;;;7.30;4.10;;;4.90;99.90;;;;;;4294444;32;21073;-75
2022/11/30 06:32:02;;;;;;;1.12;1.10;;;4.90;99.90;;;;;;4278966;32;20341;-77
2022/11/30 06:34:31;;;;;;;9.07;4.20;;;4.80;99.90;;;;;;4305010;32;20535;-75
2022/11/30 06:36:56;;;;;;;14.07;3.67;;;4.80;99.90;;;;;;4309043;32;20256;-77
2022/11/30 06:39:22;;;;;;;1.77;1.67;;;4.80;99.90;;;;;;4324674;32;20549;-77
2022/11/30 06:41:47;;;;;;;2.37;1.85;;;4.80;99.90;;;;;;4317991;32;20392;-76
2022/11/30 06:44:13;;;;;;;3.53;2.60;;;4.80;99.90;;;;;;4331196;32;20196;-76
2022/11/30 06:46:38;;;;;;;8.52;2.80;;;4.90;99.90;;;;;;4340905;32;20162;-76
2022/11/30 06:49:05;;;;;;;3.37;2.22;;;5.00;99.90;;;;;;4347654;32;20153;-76
2022/11/30 06:51:30;;;;;;;9.10;2.60;;;4.90;99.90;;;;;;4347265;32;20094;-75
2022/11/30 06:53:56;;;;;;;6.62;2.60;;;5.00;99.90;;;;;;4347491;32;20134;-76
2022/11/30 06:56:21;;;;;;;19.87;4.00;;;5.00;99.90;;;;;;4354460;32;20539;-75
2022/11/30 06:58:47;;;;;;;7.43;3.80;;;4.90;99.90;;;;;;4345478;32;20114;-76
2022/11/30 07:01:14;;;;;;;8.38;3.22;;;4.90;99.90;;;;;;4338536;32;20171;-75
2022/11/30 07:03:40;;;;;;;5.12;2.25;;;4.90;99.90;;;;;;4329475;32;20200;-76
2022/11/30 07:06:09;;;;;;;3.03;1.83;;;4.90;99.90;;;;;;4325061;32;20097;-76
2022/11/30 07:08:35;;;;;;;3.45;1.95;;;4.90;99.90;;;;;;4350883;32;20126;-75
2022/11/30 07:11:00;;;;;;;5.10;2.85;;;4.90;99.90;;;;;;4355017;32;20511;-75
2022/11/30 07:13:26;;;;;;;2.53;2.05;;;4.90;99.90;;;;;;4358789;32;20102;-76
2022/11/30 07:15:52;;;;;;;5.05;3.55;;;4.80;99.90;;;;;;4355757;32;20584;-75
2022/11/30 07:18:17;;;;;;;5.85;3.50;;;5.00;99.90;;;;;;4362710;32;20503;-75
2022/11/30 07:20:43;;;;;;;3.90;1.77;;;5.00;99.90;;;;;;4351238;32;20090;-75
2022/11/30 07:26:08;;;;;;;1.58;1.48;;;4.90;99.90;;;;;;4349903;32;20511;-76
2022/11/30 07:28:36;;;;;;;4.70;1.98;;;4.90;99.90;;;;;;4356800;32;20220;-76
2022/11/30 07:31:13;;;;;;;3.30;2.50;;;4.90;99.90;;;;;;4343728;32;88788;-76
2022/11/30 07:33:38;;;;;;;3.30;1.85;;;4.90;99.90;;;;;;4326688;32;20288;-75
2022/11/30 07:36:04;;;;;;;5.07;2.75;;;4.90;99.90;;;;;;4339970;32;20114;-74
2022/11/30 07:38:30;;;;;;;2.47;2.28;;;5.00;99.90;;;;;;4356750;32;20094;-75
2022/11/30 07:40:57;;;;;;;7.97;2.58;;;5.00;99.90;;;;;;4351789;32;20754;-75
2022/11/30 07:43:22;;;;;;;5.45;1.85;;;5.00;99.90;;;;;;4361566;32;20327;-74
2022/11/30 07:45:51;;;;;;;4.15;3.37;;;5.00;99.90;;;;;;4363743;32;20237;-74
2022/11/30 07:48:17;;;;;;;1.60;1.50;;;4.90;99.90;;;;;;4362295;32;20130;-75
2022/11/30 07:50:43;;;;;;;4.07;2.80;;;4.90;99.90;;;;;;4345131;32;20341;-76
2022/11/30 07:53:08;;;;;;;1.85;1.75;;;5.00;99.90;;;;;;4347488;32;20166;-76
2022/11/30 07:55:34;;;;;;;5.40;2.78;;;5.10;99.90;;;;;;4366500;32;20081;-77
2022/11/30 07:57:59;;;;;;;3.20;2.53;;;5.00;99.90;;;;;;4356021;32;20231;-76
2022/11/30 08:00:25;;;;;;;1.35;1.27;;;5.00;99.90;;;;;;4340601;32;20623;-76
2022/11/30 08:02:51;;;;;;;4.75;2.28;;;5.00;99.90;;;;;;4350774;32;20114;-75
2022/11/30 08:05:16;;;;;;;7.00;3.97;;;5.00;99.90;;;;;;4336216;32;20082;-75
2022/11/30 08:07:42;;;;;;;4.03;2.35;;;5.00;99.90;;;;;;4355688;32;20139;-77
2022/11/30 08:10:08;;;;;;;7.05;3.28;;;5.00;99.90;;;;;;4354678;32;20074;-75
2022/11/30 08:12:33;;;;;;;1.52;1.42;;;5.00;99.90;;;;;;4365056;32;20196;-74
2022/11/30 08:14:59;;;;;;;9.32;2.70;;;5.10;99.90;;;;;;4363195;32;20251;-76
2022/11/30 08:17:25;;;;;;;3.03;1.98;;;5.10;99.90;;;;;;4357060;32;20061;-77
2022/11/30 08:19:51;;;;;;;8.07;1.98;;;5.20;99.90;;;;;;4354309;32;20588;-76
2022/11/30 08:22:16;;;;;;;8.20;2.40;;;5.10;99.90;;;;;;4343801;32;20346;-75
2022/11/30 08:24:42;;;;;;;2.83;2.25;;;5.20;99.90;;;;;;4355351;32;20686;-73
2022/11/30 08:27:07;;;;;;;6.50;2.62;;;5.20;99.90;;;;;;4362329;32;20427;-74
2022/11/30 08:29:33;;;;;;;5.62;2.90;;;5.20;99.90;;;;;;4351441;32;20818;-76
2022/11/30 08:31:58;;;;;;;16.98;3.58;;;5.20;99.90;;;;;;4325278;32;20274;-76
2022/11/30 08:34:25;;;;;;;6.40;2.90;;;5.20;99.90;;;;;;4315016;32;20090;-78
2022/11/30 08:36:51;;;;;;;5.28;2.60;;;5.20;99.90;;;;;;4323021;32;20280;-77
2022/11/30 08:39:16;;;;;;;9.88;4.20;;;5.10;99.90;;;;;;4347383;32;20596;-76
2022/11/30 08:41:42;;;;;;;9.02;2.92;;;5.10;99.90;;;;;;4359216;32;20718;-76
2022/11/30 08:44:07;;;;;;;2.62;2.25;;;5.10;99.90;;;;;;4366459;32;20289;-78
2022/11/30 08:46:33;;;;;;;0.98;0.98;;;5.10;99.90;;;;;;4363570;32;20113;-77
2022/11/30 08:48:59;;;;;;;3.45;2.37;;;5.10;99.90;;;;;;4352213;32;20143;-77
2022/11/30 08:51:25;;;;;;;1.85;1.65;;;5.20;99.90;;;;;;4350070;32;20247;-76
2022/11/30 08:53:50;;;;;;;9.70;3.65;;;5.20;99.90;;;;;;4341584;32;20193;-76
2022/11/30 08:56:19;;;;;;;2.55;2.12;;;5.20;99.90;;;;;;4364352;32;20215;-75
2022/11/30 08:58:46;;;;;;;7.68;2.35;;;5.20;99.90;;;;;;4354032;32;20481;-76
2022/11/30 09:01:14;;;;;;;4.90;2.00;;;5.30;99.90;;;;;;4336861;32;20105;-76
2022/11/30 09:03:42;;;;;;;1.67;1.35;;;5.30;99.90;;;;;;4331743;32;20309;-76
2022/11/30 09:06:12;;;;;;;8.40;3.17;;;5.20;99.90;;;;;;4342090;32;20172;-75
2022/11/30 09:08:38;;;;;;;15.25;3.03;;;5.20;99.90;;;;;;4357459;32;20358;-75
2022/11/30 09:11:14;;;;;;;23.65;4.15;;;5.30;99.90;;;;;;4357814;32;20074;-80
2022/11/30 09:13:41;;;;;;;12.05;2.75;;;5.30;99.90;;;;;;4366801;32;20090;-72
2022/11/30 09:16:07;;;;;;;6.65;2.70;;;5.30;99.90;;;;;;4369727;32;20745;-74
2022/11/30 09:18:33;;;;;;;4.25;2.03;;;5.30;99.90;;;;;;4360389;32;20919;-76
2022/11/30 09:21:00;;;;;;;6.05;2.50;;;5.30;99.90;;;;;;4354925;32;20078;-77
2022/11/30 09:23:26;;;;;;;3.67;2.45;;;5.40;99.90;;;;;;4357576;32;20750;-76
2022/11/30 09:25:57;;;;;;;5.30;2.90;;;5.40;99.90;;;;;;4372450;32;20094;-76
2022/11/30 09:28:23;;;;;;;6.68;3.22;;;5.40;99.90;;;;;;4358892;32;20225;-76
2022/11/30 09:30:49;;;;;;;2.20;1.77;;;5.40;99.90;;;;;;4342218;32;20098;-76
2022/11/30 09:33:15;;;;;;;4.18;2.62;;;5.50;99.90;;;;;;4343387;32;20097;-77
2022/11/30 09:35:41;;;;;;;4.57;2.72;;;5.40;99.90;;;;;;4346112;32;20241;-77
2022/11/30 09:38:06;;;;;;;7.03;1.80;;;5.50;99.90;;;;;;4360998;32;21454;-76
2022/11/30 09:40:37;;;;;;;1.62;1.55;;;5.60;99.90;;;;;;4362632;32;20127;-76
2022/11/30 09:43:15;;;;;;;;;;;5.60;99.90;;;;;;4371278;32;20120;-77
2022/11/30 09:45:49;;;;;;;2.17;1.62;;;5.60;99.90;;;;;;4374082;32;19973;-76
2022/11/30 09:48:44;;;;;;;4.72;2.25;;;5.60;99.90;;;;;;4366875;32;20507;-76
2022/11/30 09:51:17;;;;;;;2.70;1.95;;;5.60;99.90;;;;;;4346239;32;20272;-77
2022/11/30 09:53:50;;;;;;;8.15;2.75;;;5.60;99.90;;;;;;4358583;32;21724;-77
2022/11/30 09:56:29;;;;;;;6.57;2.95;;;5.70;99.90;;;;;;4367117;32;20530;-77
2022/11/30 09:59:03;;;;;;;4.03;2.22;;;5.70;99.90;;;;;;4353401;32;20300;-77
2022/11/30 10:01:29;;;;;;;2.58;1.55;;;5.80;99.90;;;;;;4338796;32;20734;-77
2022/11/30 10:03:56;;;;;;;1.87;1.73;;;6.00;99.90;;;;;;4342975;32;20221;-77
2022/11/30 10:06:47;;;;;;;1.42;1.33;;;6.00;99.90;;;;;;4340434;32;20694;-77
2022/11/30 10:09:29;;;;;;;3.78;2.20;;;6.00;99.90;;;;;;4349928;32;20595;-77
2022/11/30 10:12:11;;;;;;;7.05;2.12;;;5.90;99.90;;;;;;4344533;32;20144;-78
2022/11/30 10:15:03;;;;;;;8.82;2.42;;;6.00;99.90;;;;;;4367239;32;20184;-76
2022/11/30 10:17:53;;;;;;;2.83;2.08;;;6.00;99.90;;;;;;4355276;32;21099;-76
2022/11/30 10:20:33;;;;;;;19.17;3.33;;;6.10;99.90;;;;;;4331158;32;20466;-78
2022/11/30 10:23:09;;;;;;;4.25;2.17;;;6.00;99.90;;;;;;4334606;32;20098;-77
2022/11/30 10:25:56;;;;;;;5.35;2.40;;;6.00;99.90;;;;;;4348617;32;21240;-78
2022/11/30 10:28:47;;;;;;;7.68;3.58;;;6.10;99.90;;;;;;4338135;32;22037;-78
2022/11/30 10:31:14;;;;;;;9.35;2.85;;;6.20;99.90;;;;;;4326693;32;20098;-76
2022/11/30 10:33:45;;;;;;;5.70;3.03;;;6.30;99.90;;;;;;4328417;32;22029;-78
2022/11/30 10:36:35;;;;;;;2.72;1.73;;;6.30;99.90;;;;;;4347056;32;20423;-78
2022/11/30 10:39:04;;;;;;;2.55;2.17;;;6.40;99.90;;;;;;4349702;32;20085;-77
2022/11/30 10:41:35;;;;;;;2.78;1.65;;;6.50;99.90;;;;;;4357249;32;20502;-76
2022/11/30 10:44:04;;;;;;;;;;;6.50;99.90;;;;;;4362191;32;20320;-79
2022/11/30 10:46:36;;;;;;;7.82;2.80;;;6.60;99.90;;;;;;4365007;32;20050;-77
2022/11/30 10:49:10;;;;;;;1.87;1.45;;;6.60;99.90;;;;;;4349162;32;20545;-77
2022/11/30 10:51:40;;;;;;;4.15;2.20;;;6.50;99.90;;;;;;4350502;32;20150;-76
2022/11/30 10:54:15;;;;;;;4.78;2.47;;;6.50;99.90;;;;;;4337578;32;20185;-76
2022/11/30 10:56:41;;;;;;;3.47;2.08;;;6.50;99.90;;;;;;4359584;32;20069;-76
2022/11/30 10:59:26;;;;;;;3.95;2.10;;;6.50;99.90;;;;;;4349304;32;20270;-76
2022/11/30 11:01:52;;;;;;;3.40;1.67;;;6.60;99.90;;;;;;4337098;32;20110;-77
2022/11/30 11:04:21;;;;;;;3.62;2.80;;;6.60;99.90;;;;;;4324207;32;20113;-78
2022/11/30 11:07:08;;;;;;;5.90;2.62;;;6.60;99.90;;;;;;4339151;32;20368;-76
2022/11/30 11:09:39;;;;;;;2.97;1.98;;;6.60;99.90;;;;;;4343122;32;20434;-76
2022/11/30 11:12:05;;;;;;;;;;;6.60;99.90;;;;;;4343524;32;20236;-77
2022/11/30 11:14:32;;;;;;;3.05;2.25;;;6.60;99.90;;;;;;4366751;32;19965;-76
2022/11/30 11:17:00;;;;;;;3.30;1.92;;;6.70;99.90;;;;;;4359189;32;20299;-78
2022/11/30 11:19:33;;;;;;;4.57;2.35;;;6.70;99.90;;;;;;4347645;32;20949;-78
2022/11/30 11:22:01;;;;;;;4.60;1.90;;;6.70;99.90;;;;;;4352885;32;20234;-78
2022/11/30 11:24:27;;;;;;;2.50;2.03;;;6.60;99.90;;;;;;4352481;32;20078;-76
2022/11/30 11:26:56;;;;;;;5.43;2.53;;;6.60;99.90;;;;;;4361114;32;20339;-78
2022/11/30 11:29:32;;;;;;;6.68;3.08;;;6.80;99.90;;;;;;4350878;32;20662;-76
2022/11/30 11:32:20;;;;;;;1.48;1.37;;;6.80;99.90;;;;;;4350130;32;20093;-79
2022/11/30 11:34:46;;;;;;;1.65;1.55;;;6.80;99.90;;;;;;4325848;32;20377;-78
2022/11/30 11:37:30;;;;;;;30.15;1.67;;;6.80;99.90;;;;;;4358657;32;20582;-78
2022/11/30 11:39:59;;;;;;;1.87;1.50;;;6.80;99.90;;;;;;4368689;32;20276;-79
2022/11/30 11:42:27;;;;;;;7.18;4.15;;;6.90;99.90;;;;;;4373325;32;20099;-76
2022/11/30 11:44:56;;;;;;;3.20;2.08;;;6.90;99.90;;;;;;4363555;32;20314;-79
2022/11/30 11:47:25;;;;;;;2.22;1.62;;;6.80;99.90;;;;;;4359810;32;20640;-79
2022/11/30 11:50:02;;;;;;;9.65;2.95;;;6.80;99.90;;;;;;4343568;32;20131;-78
2022/11/30 11:52:27;;;;;;;4.53;2.95;;;6.80;99.90;;;;;;4344463;32;20764;-78
2022/11/30 11:54:58;;;;;;;2.35;2.15;;;6.80;99.90;;;;;;4340181;32;20090;-76
2022/11/30 11:57:40;;;;;;;3.42;2.67;;;6.80;99.90;;;;;;4345504;32;20106;-74
2022/11/30 12:00:16;;;;;;;5.32;2.85;;;6.90;99.90;;;;;;4337352;32;20131;-77
2022/11/30 12:03:21;;;;;;;1.75;1.62;;;6.80;99.90;;;;;;4330418;32;20994;-78
2022/11/30 12:05:55;;;;;;;3.55;1.87;;;6.90;99.90;;;;;;4318179;32;20163;-77
2022/11/30 12:08:47;;;;;;;2.60;2.17;;;6.80;99.90;;;;;;4341341;32;20174;-76
2022/11/30 12:11:19;;;;;;;9.75;2.53;;;6.80;99.90;;;;;;4346850;32;20101;-76
2022/11/30 12:13:45;;;;;;;1.87;1.62;;;6.90;99.90;;;;;;4355981;32;20094;-75
2022/11/30 12:16:18;;;;;;;1.98;1.80;;;6.90;99.90;;;;;;4348268;32;21620;-76
2022/11/30 12:19:20;;;;;;;4.72;1.85;;;6.80;99.90;;;;;;4332052;32;20390;-77
2022/11/30 12:22:14;;;;;;;8.98;3.40;;;6.80;99.90;;;;;;4335497;32;20102;-76
2022/11/30 12:25:09;;;;;;;13.02;2.92;;;6.80;99.90;;;;;;4322322;32;20090;-77
2022/11/30 12:27:57;;;;;;;2.10;2.00;;;6.80;99.90;;;;;;4340492;32;20542;-77
2022/11/30 12:30:36;;;;;;;5.20;3.37;;;6.80;99.90;;;;;;4324680;32;20940;-75
2022/11/30 12:33:04;;;;;;;5.82;2.95;;;6.80;99.90;;;;;;4332145;32;20331;-77
2022/11/30 12:35:45;;;;;;;2.35;1.90;;;6.80;99.90;;;;;;4312838;32;20828;-77
2022/11/30 12:38:27;;;;;;;5.97;4.00;;;6.90;99.90;;;;;;4352412;32;20117;-75
2022/11/30 12:41:07;;;;;;;2.45;2.20;;;6.90;99.90;;;;;;4349398;32;20624;-77
2022/11/30 12:43:40;;;;;;;2.12;1.92;;;6.80;99.90;;;;;;4356107;32;20109;-83
2022/11/30 12:46:14;;;;;;;2.72;2.03;;;6.90;99.90;;;;;;4354631;32;21314;-80
2022/11/30 12:48:54;;;;;;;2.75;2.12;;;6.90;99.90;;;;;;4347565;32;21037;-78
2022/11/30 12:51:32;;;;;;;1.98;1.75;;;6.90;99.90;;;;;;4349012;32;20158;-78
2022/11/30 12:54:25;;;;;;;5.30;2.95;;;6.90;99.90;;;;;;4347255;32;20086;-78
2022/11/30 12:57:14;;;;;;;5.10;2.62;;;6.80;99.90;;;;;;4344633;32;20847;-78
2022/11/30 12:59:53;;;;;;;3.72;2.53;;;6.80;99.90;;;;;;4331933;32;20260;-76
2022/11/30 13:02:59;;;;;;;3.97;2.87;;;6.80;99.90;;;;;;4338587;32;20107;-74
2022/11/30 13:05:34;;;;;;;4.55;2.20;;;6.80;99.90;;;;;;4314255;32;20525;-77
2022/11/30 13:08:23;;;;;;;3.33;2.50;;;6.80;99.90;;;;;;4357281;32;20332;-79
2022/11/30 13:10:55;;;;;;;5.47;2.80;;;6.80;99.90;;;;;;4346827;32;20328;-77
2022/11/30 13:13:27;;;;;;;7.07;2.87;;;6.90;99.90;;;;;;4356159;32;20134;-77